CheckWX is a tool to help pilots better visualize weather data.  It is not intended as a substitute for an official pre-flight weather briefing.

08:53:23 UTC

KLLQ TAF
Monticello Municipal / Ellis Field Airport
Monticello, Arkansas, USA
KLLQ 180538Z 1806/1906 VRB03KT P6SM SCT250 FM181700 10006KT P6SM FEW250

Oct-18@
06:00 UTC

Oct-18 @ 06:00 UTC

Oct-18@
17:00 UTC

Oct-18 @ 17:00 UTC

KLLQ 180538Z 1806/1906 VRB03KT P6SM SCT250
Wind
  • Variable at 3 KTS
Cloud Levels
  • Scattered at 25,000' AGL

Oct-18@
17:00 UTC

Oct-18 @ 17:00 UTC

Oct-19@
06:00 UTC

Oct-19 @ 06:00 UTC

FM181700 10006KT P6SM FEW250

From

From Standard forecast or significant change

Wind
  • 100° at 6 KTS
Cloud Levels
  • Few at 25,000' AGL